createdAt,value
2023-03-27T00:00:00.348Z,100666.31
2023-03-27T00:00:25.624Z,100663.66
2023-03-27T00:00:50.786Z,100663.59
2023-03-27T00:01:13.146Z,100667.09
2023-03-27T00:01:35.174Z,100665.34
2023-03-27T00:01:57.275Z,100668.91
2023-03-27T00:02:20.228Z,100668.75
2023-03-27T00:02:43.297Z,100666.06
2023-03-27T00:03:06.274Z,100669.66
2023-03-27T00:03:29.638Z,100671.34
2023-03-27T00:03:53.369Z,100670.47
2023-03-27T00:04:17.931Z,100667.84
2023-03-27T00:04:42.357Z,100657.38
2023-03-27T00:05:05.401Z,100675.69
2023-03-27T00:05:27.662Z,100653.03
2023-03-27T00:05:49.355Z,100677.41
2023-03-27T00:06:16.454Z,100676.53
2023-03-27T00:06:38.101Z,100674.78
2023-03-27T00:06:59.727Z,100680.19
2023-03-27T00:07:21.954Z,100680.19
2023-03-27T00:07:44.481Z,100676.66
2023-03-27T00:08:09.387Z,100650.56
2023-03-27T00:08:31.577Z,100676.69
2023-03-27T00:08:53.553Z,100679.22
2023-03-27T00:09:16.891Z,100685.38
2023-03-27T00:09:39.126Z,100682.72
2023-03-27T00:10:01.695Z,100682.75
2023-03-27T00:10:23.971Z,100683.66
2023-03-27T00:10:48.016Z,100686.38
2023-03-27T00:11:10.032Z,100689.16
2023-03-27T00:11:33.060Z,100697.25
2023-03-27T00:11:56.136Z,100686.63
2023-03-27T00:12:17.744Z,100688.50
2023-03-27T00:12:39.315Z,100697.25
2023-03-27T00:13:03.522Z,100684.00
2023-03-27T00:13:25.595Z,100692.78
2023-03-27T00:13:50.788Z,100690.06
2023-03-27T00:14:13.083Z,100692.59
2023-03-27T00:14:36.291Z,100701.50
2023-03-27T00:14:58.882Z,100694.34
2023-03-27T00:15:21.798Z,100697.09
2023-03-27T00:15:43.411Z,100696.13
2023-03-27T00:16:06.140Z,100696.97
2023-03-27T00:16:28.785Z,100689.00
2023-03-27T00:16:51.083Z,100686.53
2023-03-27T00:17:13.466Z,100696.00
2023-03-27T00:17:35.168Z,100691.59
2023-03-27T00:17:58.617Z,100687.25
2023-03-27T00:18:21.719Z,100698.72
2023-03-27T00:18:44.905Z,100696.09
2023-03-27T00:19:06.575Z,100698.66
2023-03-27T00:19:28.265Z,100704.81
2023-03-27T00:19:52.150Z,100691.75
2023-03-27T00:20:15.007Z,100708.34
2023-03-27T00:20:37.422Z,100703.94
2023-03-27T00:21:00.833Z,100702.25
2023-03-27T00:21:24.208Z,100703.38
2023-03-27T00:21:46.041Z,100689.50
2023-03-27T00:22:07.667Z,100699.84
2023-03-27T00:22:30.043Z,100703.34
2023-03-27T00:22:56.446Z,100709.53
2023-03-27T00:23:19.962Z,100709.56
2023-03-27T00:23:42.278Z,100707.78
2023-03-27T00:24:04.168Z,100703.34
2023-03-27T00:24:27.099Z,100706.78
2023-03-27T00:24:48.763Z,100714.66
2023-03-27T00:25:12.430Z,100712.88
2023-03-27T00:25:35.138Z,100706.59
2023-03-27T00:25:58.845Z,100715.41
2023-03-27T00:26:22.051Z,100699.75
2023-03-27T00:27:25.057Z,100706.81
2023-03-27T00:27:47.202Z,100707.69
2023-03-27T00:28:08.895Z,100714.66
2023-03-27T00:28:31.304Z,100717.25
2023-03-27T00:28:54.725Z,100712.81
2023-03-27T00:29:16.820Z,100720.75
2023-03-27T00:29:39.634Z,100714.69
2023-03-27T00:30:01.413Z,100726.97
2023-03-27T00:30:23.410Z,100718.28
2023-03-27T00:30:46.473Z,100720.88
2023-03-27T00:31:11.367Z,100718.34
2023-03-27T00:31:33.458Z,100725.44
2023-03-27T00:31:55.126Z,100726.31
2023-03-27T00:32:18.014Z,100725.50
2023-03-27T00:32:39.681Z,100729.94
2023-03-27T00:33:01.969Z,100733.47
2023-03-27T00:33:24.937Z,100729.00
2023-03-27T00:33:47.495Z,100730.72
2023-03-27T00:34:10.448Z,100725.50
2023-03-27T00:34:32.144Z,100728.16
2023-03-27T00:34:55.110Z,100733.38
2023-03-27T00:35:16.857Z,100732.56
2023-03-27T00:35:39.755Z,100735.47
2023-03-27T00:36:01.438Z,100729.28
2023-03-27T00:36:23.125Z,100731.91
2023-03-27T00:36:48.236Z,100737.19
2023-03-27T00:37:09.939Z,100733.59
2023-03-27T00:37:33.085Z,100736.22
2023-03-27T00:37:54.808Z,100740.63
2023-03-27T00:38:18.368Z,100740.59
2023-03-27T00:38:40.135Z,100732.69
2023-03-27T00:39:01.949Z,100741.31
2023-03-27T00:39:24.801Z,100738.66
2023-03-27T00:39:49.930Z,100743.94
2023-03-27T00:40:17.602Z,100742.16
2023-03-27T00:40:40.087Z,100746.56
2023-03-27T00:41:03.090Z,100737.69
2023-03-27T00:41:24.783Z,100729.94
2023-03-27T00:41:48.625Z,100742.16
2023-03-27T00:42:14.396Z,100742.09
2023-03-27T00:42:36.357Z,100738.63
2023-03-27T00:42:59.242Z,100744.81
2023-03-27T00:43:23.074Z,100749.22
2023-03-27T00:43:44.796Z,100747.47
2023-03-27T00:44:22.893Z,100744.84
2023-03-27T00:44:44.704Z,100749.31
2023-03-27T00:45:10.629Z,100751.09
2023-03-27T00:45:33.781Z,100747.59
2023-03-27T00:46:01.220Z,100754.66
2023-03-27T00:46:34.085Z,100752.91
2023-03-27T00:46:57.110Z,100752.88
2023-03-27T00:47:25.754Z,100753.81
2023-03-27T00:47:54.063Z,100755.63
2023-03-27T00:48:16.681Z,100754.75
2023-03-27T00:48:38.325Z,100741.81
2023-03-27T00:49:03.453Z,100753.19
2023-03-27T00:49:29.518Z,100752.28
2023-03-27T00:49:52.438Z,100746.06
2023-03-27T00:50:19.363Z,100751.31
2023-03-27T00:50:44.861Z,100747.81
2023-03-27T00:51:07.176Z,100741.66
2023-03-27T00:51:29.599Z,100760.06
2023-03-27T00:51:53.394Z,100709.34
2023-03-27T00:52:16.843Z,100737.97
2023-03-27T00:52:41.647Z,100748.59
2023-03-27T00:53:07.870Z,100751.34
2023-03-27T00:53:30.163Z,100746.03
2023-03-27T00:53:53.823Z,100749.47
2023-03-27T00:54:21.869Z,100747.69
2023-03-27T00:54:46.668Z,100746.84
2023-03-27T00:55:14.160Z,100749.47
2023-03-27T00:55:42.367Z,100751.34
2023-03-27T00:56:07.603Z,100748.69
2023-03-27T00:56:30.567Z,100741.03
2023-03-27T00:56:53.559Z,100755.78
2023-03-27T00:57:21.886Z,100755.88
2023-03-27T00:57:46.601Z,100754.94
2023-03-27T00:58:13.712Z,100756.84
2023-03-27T00:58:40.619Z,100761.22
2023-03-27T00:59:07.230Z,100751.63
2023-03-27T00:59:32.157Z,100759.47
2023-03-27T00:59:55.779Z,100762.13
2023-03-27T01:00:18.935Z,100735.91
2023-03-27T01:00:41.208Z,100758.63
2023-03-27T01:01:05.325Z,100768.31
2023-03-27T01:01:29.799Z,100757.81
2023-03-27T01:01:51.806Z,100764.78
2023-03-27T01:02:13.853Z,100763.03
2023-03-27T01:02:36.693Z,100756.03
2023-03-27T01:02:59.515Z,100753.50
2023-03-27T01:03:25.398Z,100760.56
2023-03-27T01:03:49.351Z,100746.56
2023-03-27T01:04:13.078Z,100759.69
2023-03-27T01:04:37.309Z,100764.09
2023-03-27T01:04:59.951Z,100769.38
2023-03-27T01:05:23.166Z,100763.19
2023-03-27T01:05:47.449Z,100771.13
2023-03-27T01:06:14.158Z,100774.69
2023-03-27T01:06:37.233Z,100764.13
2023-03-27T01:07:00.184Z,100763.41
2023-03-27T01:07:25.040Z,100765.94
2023-03-27T01:08:00.386Z,100762.44
2023-03-27T01:08:24.513Z,100771.25
2023-03-27T01:08:48.165Z,100767.72
2023-03-27T01:09:09.844Z,100750.38
2023-03-27T01:09:31.712Z,100774.84
2023-03-27T01:09:54.575Z,100769.56
2023-03-27T01:10:18.606Z,100753.88
2023-03-27T01:10:52.318Z,100771.38
2023-03-27T01:11:26.613Z,100765.28
2023-03-27T01:12:04.406Z,100778.50
2023-03-27T01:12:44.449Z,100774.06
2023-03-27T01:13:23.799Z,100775.84
2023-03-27T01:14:14.349Z,100774.88
2023-03-27T01:14:44.086Z,100779.34
2023-03-27T01:15:17.594Z,100767.22
2023-03-27T01:15:47.553Z,100770.63
2023-03-27T01:16:16.271Z,100777.69
2023-03-27T01:16:47.915Z,100783.78
2023-03-27T01:17:25.963Z,100784.59
2023-03-27T01:18:11.783Z,100784.59
2023-03-27T01:18:41.604Z,100781.13
2023-03-27T01:19:28.102Z,100780.22
2023-03-27T01:20:27.320Z,100783.78
2023-03-27T01:21:19.770Z,100794.47
2023-03-27T01:22:21.879Z,100790.94
2023-03-27T01:23:00.790Z,100788.28
2023-03-27T01:23:59.052Z,100793.56
2023-03-27T01:24:57.826Z,100791.72
2023-03-27T01:25:54.735Z,100789.97
2023-03-27T01:26:57.483Z,100794.44
2023-03-27T01:27:25.789Z,100798.03
2023-03-27T01:28:10.806Z,100795.31
2023-03-27T01:28:46.572Z,100799.72
2023-03-27T01:29:15.248Z,100803.31
2023-03-27T01:30:05.625Z,100796.41
2023-03-27T01:30:32.353Z,100807.78
2023-03-27T01:31:01.365Z,100800.72
2023-03-27T01:31:43.903Z,100787.75
2023-03-27T01:32:33.671Z,100811.34
2023-03-27T01:33:28.302Z,100811.19
2023-03-27T01:34:29.656Z,100820.88
2023-03-27T01:35:28.087Z,100819.97
2023-03-27T01:36:35.257Z,100819.13
2023-03-27T01:37:25.345Z,100815.66
2023-03-27T01:38:06.300Z,100815.66
2023-03-27T01:38:44.386Z,100809.59
2023-03-27T01:39:31.114Z,100799.97
2023-03-27T01:39:59.867Z,100788.78
2023-03-27T01:40:26.891Z,100821.06
2023-03-27T01:40:55.131Z,100814.09
2023-03-27T01:41:26.888Z,100810.59
2023-03-27T01:41:54.476Z,100820.16
2023-03-27T01:42:22.475Z,100822.03
2023-03-27T01:42:52.415Z,100823.81
2023-03-27T01:43:18.913Z,100820.34
2023-03-27T01:43:50.270Z,100822.13
2023-03-27T01:44:16.584Z,100809.88
2023-03-27T01:44:47.530Z,100820.44
2023-03-27T01:45:17.897Z,100827.47
2023-03-27T01:45:45.008Z,100824.00
2023-03-27T01:46:09.710Z,100822.22
2023-03-27T01:46:35.910Z,100823.03
2023-03-27T01:47:04.400Z,100816.19
2023-03-27T01:47:39.496Z,100824.09
2023-03-27T01:48:08.880Z,100818.75
2023-03-27T01:48:34.308Z,100817.88
2023-03-27T01:49:00.778Z,100825.78
2023-03-27T01:49:28.012Z,100820.53
2023-03-27T01:49:55.151Z,100828.38
2023-03-27T01:50:22.931Z,100825.75
2023-03-27T01:50:48.695Z,100802.19
2023-03-27T01:51:15.686Z,100830.19
2023-03-27T01:51:40.504Z,100826.63
2023-03-27T01:52:08.066Z,100826.63
2023-03-27T01:52:33.954Z,100823.31
2023-03-27T01:53:01.316Z,100832.00
2023-03-27T01:53:28.629Z,100837.22
2023-03-27T01:53:54.997Z,100828.41
2023-03-27T01:54:21.826Z,100839.88
2023-03-27T01:54:50.260Z,100833.72
2023-03-27T01:55:19.050Z,100827.56
2023-03-27T01:55:45.840Z,100835.41
2023-03-27T01:56:13.399Z,100836.25
2023-03-27T01:56:39.288Z,100802.19
2023-03-27T01:57:08.207Z,100835.34
2023-03-27T01:57:36.354Z,100831.81
2023-03-27T01:58:15.213Z,100834.47
2023-03-27T01:58:46.253Z,100831.84
2023-03-27T01:59:12.930Z,100845.91
2023-03-27T01:59:40.360Z,100841.50
2023-03-27T02:00:18.709Z,100837.97
2023-03-27T02:00:52.212Z,100845.88
2023-03-27T02:01:22.240Z,100843.31
2023-03-27T02:01:48.597Z,100843.28
2023-03-27T02:02:17.482Z,100845.97
2023-03-27T02:02:41.894Z,100845.16
2023-03-27T02:03:09.770Z,100847.72
2023-03-27T02:03:35.860Z,100837.25
2023-03-27T02:04:02.839Z,100852.16
2023-03-27T02:04:28.953Z,100845.13
2023-03-27T02:04:55.514Z,100847.78
2023-03-27T02:05:21.198Z,100846.06
2023-03-27T02:05:49.026Z,100851.34
2023-03-27T02:06:17.671Z,100842.53
2023-03-27T02:06:43.671Z,100847.88
2023-03-27T02:07:11.126Z,100843.47
2023-03-27T02:07:39.382Z,100842.59
2023-03-27T02:08:09.788Z,100850.44
2023-03-27T02:08:37.607Z,100855.72
2023-03-27T02:09:19.298Z,100847.81
2023-03-27T02:09:44.739Z,100832.09
2023-03-27T02:10:13.754Z,100850.50
2023-03-27T02:10:42.050Z,100854.06
2023-03-27T02:11:10.130Z,100846.16
2023-03-27T02:11:36.926Z,100855.03
2023-03-27T02:12:10.145Z,100853.25
2023-03-27T02:12:34.179Z,100862.97
2023-03-27T02:13:00.894Z,100863.88
2023-03-27T02:13:27.261Z,100861.25
2023-03-27T02:13:54.207Z,100863.81
2023-03-27T02:14:20.556Z,100851.56
2023-03-27T02:14:49.616Z,100855.81
2023-03-27T02:15:22.621Z,100863.75
2023-03-27T02:15:49.301Z,100866.47
2023-03-27T02:16:16.628Z,100863.03
2023-03-27T02:16:46.263Z,100849.97
2023-03-27T02:17:12.922Z,100863.91
2023-03-27T02:17:38.590Z,100858.53
2023-03-27T02:18:04.830Z,100863.84
2023-03-27T02:18:37.281Z,100862.13
2023-03-27T02:19:03.006Z,100867.34
2023-03-27T02:19:30.126Z,100868.31
2023-03-27T02:19:56.834Z,100868.25
2023-03-27T02:20:21.198Z,100874.38
2023-03-27T02:20:42.877Z,100868.16
2023-03-27T02:21:06.098Z,100874.28
2023-03-27T02:21:27.942Z,100869.00
2023-03-27T02:21:53.377Z,100876.06
2023-03-27T02:22:17.205Z,100872.47
2023-03-27T02:22:43.761Z,100873.41
2023-03-27T02:23:06.388Z,100872.53
2023-03-27T02:23:30.853Z,100874.31
2023-03-27T02:23:53.048Z,100873.41
2023-03-27T02:24:16.706Z,100871.66
2023-03-27T02:24:38.918Z,100873.44
2023-03-27T02:25:01.507Z,100877.84
2023-03-27T02:25:28.750Z,100870.88
2023-03-27T02:25:51.913Z,100876.13
2023-03-27T02:26:14.979Z,100870.00
2023-03-27T02:26:37.819Z,100884.09
2023-03-27T02:27:09.158Z,100877.84
2023-03-27T02:27:39.252Z,100883.09
2023-03-27T02:28:30.918Z,100866.53
2023-03-27T02:29:26.980Z,100888.47
2023-03-27T02:30:00.066Z,100884.88
2023-03-27T02:30:28.035Z,100885.75
2023-03-27T02:31:06.328Z,100891.03
2023-03-27T02:31:58.213Z,100888.50
2023-03-27T02:32:33.866Z,100884.09
2023-03-27T02:33:03.543Z,100895.59
2023-03-27T02:33:35.369Z,100889.38
2023-03-27T02:34:18.506Z,100892.06
2023-03-27T02:34:52.812Z,100887.69
2023-03-27T02:35:30.839Z,100891.22
2023-03-27T02:35:58.562Z,100894.66
2023-03-27T02:36:35.528Z,100888.53
2023-03-27T02:37:05.138Z,100893.84
2023-03-27T02:37:57.142Z,100899.13
2023-03-27T02:38:46.426Z,100892.94
2023-03-27T02:39:14.468Z,100895.59
2023-03-27T02:39:44.556Z,100888.63
2023-03-27T02:40:14.033Z,100892.97
2023-03-27T02:40:48.373Z,100899.13
2023-03-27T02:41:35.381Z,100902.66
2023-03-27T02:42:37.940Z,100886.13
2023-03-27T02:43:07.306Z,100907.16
2023-03-27T02:43:34.190Z,100904.47
2023-03-27T02:44:09.812Z,100908.00
2023-03-27T02:44:51.420Z,100905.38
2023-03-27T02:45:21.240Z,100902.81
2023-03-27T02:45:51.578Z,100915.13
2023-03-27T02:46:20.522Z,100924.81
2023-03-27T02:46:47.797Z,100908.09
2023-03-27T02:47:14.837Z,100923.06
2023-03-27T02:47:39.966Z,100920.41
2023-03-27T02:48:07.518Z,100932.75
2023-03-27T02:48:35.258Z,100923.13
2023-03-27T02:49:00.914Z,100927.47
2023-03-27T02:49:29.801Z,100935.44
2023-03-27T02:49:56.400Z,100928.41
2023-03-27T02:50:23.539Z,100935.41
2023-03-27T02:50:51.083Z,100931.91
2023-03-27T02:51:17.669Z,100920.47
2023-03-27T02:51:45.875Z,100930.13
2023-03-27T02:52:13.053Z,100933.63
2023-03-27T02:52:40.208Z,100935.38
2023-03-27T02:53:04.992Z,100933.63
2023-03-27T02:53:30.116Z,100934.50
2023-03-27T02:53:58.399Z,100929.19
2023-03-27T02:54:25.461Z,100930.09
2023-03-27T02:54:52.409Z,100927.44
2023-03-27T02:55:20.039Z,100937.06
2023-03-27T02:55:47.758Z,100928.31
2023-03-27T02:56:13.516Z,100930.16
2023-03-27T02:56:40.539Z,100939.84
2023-03-27T02:57:05.867Z,100938.97
2023-03-27T02:57:52.392Z,100935.44
2023-03-27T02:58:21.299Z,100938.03
2023-03-27T02:59:01.064Z,100937.22
2023-03-27T02:59:31.358Z,100933.69
2023-03-27T02:59:57.067Z,100933.81
2023-03-27T03:00:26.101Z,100939.94
2023-03-27T03:01:10.633Z,100932.88
2023-03-27T03:01:46.821Z,100937.28
2023-03-27T03:02:16.389Z,100940.78
2023-03-27T03:02:58.864Z,100933.75
2023-03-27T03:03:27.729Z,100935.50
2023-03-27T03:03:59.995Z,100937.28
2023-03-27T03:04:57.701Z,100935.56
2023-03-27T03:05:32.595Z,100944.41
2023-03-27T03:05:54.454Z,100950.56
2023-03-27T03:06:16.116Z,100935.59
2023-03-27T03:06:42.074Z,100938.31
2023-03-27T03:07:06.346Z,100946.16
2023-03-27T03:07:28.452Z,100943.44
2023-03-27T03:07:51.039Z,100953.13
2023-03-27T03:08:14.709Z,100946.97
2023-03-27T03:08:39.096Z,100954.00
2023-03-27T03:09:05.913Z,100948.72
2023-03-27T03:09:32.080Z,100944.31
2023-03-27T03:09:53.841Z,100946.91
2023-03-27T03:10:16.620Z,100948.66
2023-03-27T03:10:44.832Z,100953.94
2023-03-27T03:11:11.410Z,100947.69
2023-03-27T03:11:36.792Z,100958.22
2023-03-27T03:11:59.298Z,100950.34
2023-03-27T03:12:21.527Z,100952.03
2023-03-27T03:12:44.305Z,100954.69
2023-03-27T03:13:06.001Z,100954.69
2023-03-27T03:13:28.651Z,100952.97
2023-03-27T03:13:51.258Z,100964.41
2023-03-27T03:14:14.151Z,100955.63
2023-03-27T03:14:40.096Z,100966.19
2023-03-27T03:15:01.692Z,100959.13
2023-03-27T03:15:25.267Z,100951.25
2023-03-27T03:15:47.909Z,100962.69
2023-03-27T03:16:12.599Z,100957.38
2023-03-27T03:16:34.966Z,100959.97
2023-03-27T03:16:57.574Z,100958.25
2023-03-27T03:17:19.249Z,100960.03
2023-03-27T03:17:41.012Z,100963.56
2023-03-27T03:18:03.763Z,100958.34
2023-03-27T03:18:26.547Z,100966.28
2023-03-27T03:18:48.165Z,100964.56
2023-03-27T03:19:09.804Z,100962.81
2023-03-27T03:19:32.431Z,100962.81
2023-03-27T03:19:55.364Z,100963.63
2023-03-27T03:20:17.171Z,100954.00
2023-03-27T03:20:39.678Z,100950.53
2023-03-27T03:21:01.366Z,100945.28
2023-03-27T03:21:25.458Z,100961.91
2023-03-27T03:21:49.400Z,100948.72
2023-03-27T03:22:11.378Z,100963.69
2023-03-27T03:22:33.897Z,100964.50
2023-03-27T03:22:57.055Z,100970.66
2023-03-27T03:23:18.645Z,100973.25
2023-03-27T03:23:40.846Z,100970.66
2023-03-27T03:24:03.454Z,100941.84
2023-03-27T03:24:26.155Z,100975.06
2023-03-27T03:24:48.225Z,100971.53
2023-03-27T03:25:12.320Z,100974.19
2023-03-27T03:25:34.221Z,100946.22
2023-03-27T03:25:58.137Z,100975.94
2023-03-27T03:26:27.290Z,100978.56
2023-03-27T03:26:50.164Z,100974.19
2023-03-27T03:27:14.344Z,100980.28
2023-03-27T03:27:44.128Z,100981.25
2023-03-27T03:28:08.247Z,100977.72
2023-03-27T03:28:30.922Z,100978.59
2023-03-27T03:29:00.553Z,100981.28
2023-03-27T03:29:35.338Z,100983.94
2023-03-27T03:30:07.501Z,100986.53
2023-03-27T03:30:37.366Z,100979.47
2023-03-27T03:31:04.779Z,100981.16
2023-03-27T03:31:26.559Z,100990.84
2023-03-27T03:31:49.976Z,100989.97
2023-03-27T03:32:11.683Z,100991.81
2023-03-27T03:32:34.030Z,100986.56
2023-03-27T03:33:00.632Z,100978.72
2023-03-27T03:33:22.488Z,100994.47
2023-03-27T03:33:44.694Z,100984.81
2023-03-27T03:34:06.562Z,100992.72
2023-03-27T03:34:30.294Z,100993.63
2023-03-27T03:34:53.083Z,100998.03
2023-03-27T03:35:15.323Z,100998.94
2023-03-27T03:35:37.155Z,100991.88
2023-03-27T03:36:07.218Z,100997.16
2023-03-27T03:36:31.622Z,100987.50
2023-03-27T03:36:55.118Z,101000.72
2023-03-27T03:37:28.347Z,100998.06
2023-03-27T03:37:53.749Z,100997.19
2023-03-27T03:38:24.874Z,101009.47
2023-03-27T03:38:46.647Z,101003.34
2023-03-27T03:39:11.327Z,101003.38
2023-03-27T03:39:33.017Z,101003.50
2023-03-27T03:39:54.745Z,100992.19
2023-03-27T03:40:17.055Z,101000.84
2023-03-27T03:40:42.678Z,101007.00
2023-03-27T03:41:06.427Z,100999.03
2023-03-27T03:41:28.245Z,101000.03
2023-03-27T03:41:55.487Z,100987.72
2023-03-27T03:42:22.957Z,101005.19
2023-03-27T03:42:48.819Z,100990.41
2023-03-27T03:43:11.515Z,101004.38
2023-03-27T03:43:34.432Z,101008.78
2023-03-27T03:43:56.377Z,101007.88
2023-03-27T03:44:18.154Z,101009.59
2023-03-27T03:44:39.731Z,101009.59
2023-03-27T03:45:13.401Z,101000.78
2023-03-27T03:45:35.261Z,101006.88
2023-03-27T03:45:56.982Z,101013.91
2023-03-27T03:46:21.110Z,101009.50
2023-03-27T03:46:42.801Z,101010.41
2023-03-27T03:47:04.961Z,101013.03
2023-03-27T03:47:26.896Z,101010.41
2023-03-27T03:47:49.613Z,101018.34
2023-03-27T03:48:11.461Z,101014.88
2023-03-27T03:48:33.098Z,101020.16
2023-03-27T03:48:54.931Z,101015.69
2023-03-27T03:49:17.563Z,101013.09
2023-03-27T03:49:39.250Z,101022.78
2023-03-27T03:50:00.863Z,101012.19
2023-03-27T03:50:26.144Z,101017.44
2023-03-27T03:50:49.806Z,101007.81
2023-03-27T03:51:11.508Z,101015.75
2023-03-27T03:51:33.949Z,101016.63
2023-03-27T03:52:04.465Z,101014.88
2023-03-27T03:52:28.556Z,101007.84
2023-03-27T03:52:50.333Z,101011.41
2023-03-27T03:53:12.168Z,101003.56
2023-03-27T03:53:33.951Z,101014.94
2023-03-27T03:53:56.784Z,101020.22
2023-03-27T03:54:18.805Z,101011.41
2023-03-27T03:54:40.483Z,101012.28
2023-03-27T03:55:07.564Z,101013.13
2023-03-27T03:55:30.501Z,101009.59
2023-03-27T03:55:53.120Z,101015.75
2023-03-27T03:56:16.164Z,101010.47
2023-03-27T03:56:41.521Z,101014.94
2023-03-27T03:57:03.565Z,101014.94
2023-03-27T03:57:26.929Z,101014.94
2023-03-27T03:57:59.809Z,101013.13
2023-03-27T03:58:34.595Z,101016.69
2023-03-27T03:58:59.235Z,101017.59
2023-03-27T03:59:21.507Z,101025.50
2023-03-27T04:00:12.381Z,101027.25
2023-03-27T04:00:44.587Z,101018.44
2023-03-27T04:01:20.626Z,101021.97
2023-03-27T04:01:46.734Z,101016.75
2023-03-27T04:02:12.066Z,101017.63
2023-03-27T04:02:34.862Z,101015.88
2023-03-27T04:03:06.169Z,101016.75
2023-03-27T04:03:32.297Z,101023.84
2023-03-27T04:03:54.338Z,101031.78
2023-03-27T04:04:16.412Z,101024.72
2023-03-27T04:04:56.965Z,101025.59
2023-03-27T04:05:21.421Z,101022.16
2023-03-27T04:05:46.640Z,101016.00
2023-03-27T04:06:10.799Z,101023.84
2023-03-27T04:06:32.466Z,101012.50
2023-03-27T04:06:58.352Z,101032.66
2023-03-27T04:07:31.454Z,101030.88
2023-03-27T04:08:11.204Z,101022.97
2023-03-27T04:08:47.731Z,101027.38
2023-03-27T04:09:29.664Z,101023.84
2023-03-27T04:10:00.492Z,101030.00
2023-03-27T04:10:23.790Z,101026.50
2023-03-27T04:10:45.998Z,101033.53
2023-03-27T04:11:17.404Z,101030.88
2023-03-27T04:11:57.438Z,101030.00
2023-03-27T04:12:35.784Z,101030.00
2023-03-27T04:13:01.757Z,101027.44
2023-03-27T04:13:32.024Z,101029.13
2023-03-27T04:14:01.023Z,101026.56
2023-03-27T04:14:31.823Z,101036.25
2023-03-27T04:14:57.334Z,101033.59
2023-03-27T04:15:43.589Z,101045.91
2023-03-27T04:16:16.953Z,101029.34
2023-03-27T04:16:43.584Z,101038.97
2023-03-27T04:17:15.634Z,101039.88
2023-03-27T04:17:38.570Z,101040.69
2023-03-27T04:18:04.627Z,101043.31
2023-03-27T04:18:30.320Z,101040.69
2023-03-27T04:18:55.166Z,101042.44
2023-03-27T04:19:20.058Z,101043.31
2023-03-27T04:19:48.502Z,101040.69
2023-03-27T04:20:12.716Z,101043.34
2023-03-27T04:20:34.793Z,101043.38
2023-03-27T04:20:58.985Z,101043.34
2023-03-27T04:21:21.968Z,101042.44
2023-03-27T04:21:44.101Z,101046.84
2023-03-27T04:22:06.931Z,101045.09
2023-03-27T04:22:30.866Z,101046.84
2023-03-27T04:22:55.089Z,101047.72
2023-03-27T04:23:18.437Z,101045.19
2023-03-27T04:23:40.661Z,101052.16
2023-03-27T04:24:08.297Z,101057.44
2023-03-27T04:24:44.645Z,101057.41
2023-03-27T04:25:08.242Z,101052.19
2023-03-27T04:25:30.230Z,101054.81
2023-03-27T04:25:53.649Z,101054.81
2023-03-27T04:26:26.358Z,101060.03
2023-03-27T04:27:21.245Z,101063.63
2023-03-27T04:28:06.974Z,101070.66
2023-03-27T04:28:34.449Z,101023.41
2023-03-27T04:29:10.804Z,101077.75
2023-03-27T04:29:56.342Z,101067.19
2023-03-27T04:30:44.876Z,101079.56
2023-03-27T04:31:26.770Z,101076.03
2023-03-27T04:32:06.966Z,101075.16
2023-03-27T04:32:34.523Z,101085.69
2023-03-27T04:33:19.133Z,101079.53
2023-03-27T04:33:51.817Z,101085.66
2023-03-27T04:34:42.057Z,101090.06
2023-03-27T04:35:25.138Z,101088.31
2023-03-27T04:36:07.833Z,101084.78
2023-03-27T04:36:51.255Z,101086.63
2023-03-27T04:37:18.448Z,101083.94
2023-03-27T04:38:05.474Z,101088.34
2023-03-27T04:38:39.099Z,101076.13
2023-03-27T04:39:02.364Z,101098.91
2023-03-27T04:39:26.433Z,101090.09
2023-03-27T04:39:48.104Z,101094.44
2023-03-27T04:40:14.046Z,101084.78
2023-03-27T04:40:35.689Z,101097.97
2023-03-27T04:40:57.842Z,101095.34
2023-03-27T04:41:21.225Z,101089.19
2023-03-27T04:41:49.138Z,101086.59
2023-03-27T04:42:11.119Z,101084.88
2023-03-27T04:42:33.412Z,101087.47
2023-03-27T04:42:56.501Z,101090.94
2023-03-27T04:43:18.269Z,101083.09
2023-03-27T04:43:41.606Z,101095.38
2023-03-27T04:44:03.412Z,101097.13
2023-03-27T04:44:26.257Z,101086.59
2023-03-27T04:44:48.040Z,101092.78
2023-03-27T04:45:13.016Z,101096.25
2023-03-27T04:45:36.968Z,101094.50
2023-03-27T04:46:00.382Z,101094.50
2023-03-27T04:46:22.350Z,101094.50
2023-03-27T04:46:49.089Z,101097.13
2023-03-27T04:47:12.263Z,101094.50
2023-03-27T04:47:37.852Z,101093.66
2023-03-27T04:48:00.328Z,101091.91
2023-03-27T04:48:23.118Z,101098.03
2023-03-27T04:48:49.122Z,101094.50
2023-03-27T04:49:21.094Z,101093.66
2023-03-27T04:49:59.223Z,101100.72
2023-03-27T04:50:22.921Z,101095.47
2023-03-27T04:50:49.196Z,101096.34
2023-03-27T04:51:20.897Z,101103.41
2023-03-27T04:51:43.197Z,101099.00
2023-03-27T04:52:07.818Z,101097.28
2023-03-27T04:52:29.606Z,101103.38
2023-03-27T04:52:58.487Z,101093.81
2023-03-27T04:53:21.278Z,101100.81
2023-03-27T04:53:43.913Z,101109.56
2023-03-27T04:54:07.341Z,101106.91
2023-03-27T04:54:35.844Z,101107.78
2023-03-27T04:54:58.926Z,101107.78
2023-03-27T04:55:25.745Z,101101.69
2023-03-27T04:55:51.188Z,101113.06
2023-03-27T04:56:12.943Z,101109.56
2023-03-27T04:56:36.721Z,101108.72
2023-03-27T04:57:02.078Z,101102.53
2023-03-27T04:57:27.665Z,101111.31
2023-03-27T04:57:52.549Z,101111.31
2023-03-27T04:58:16.569Z,101106.88
2023-03-27T04:58:40.975Z,101102.50
2023-03-27T04:59:06.677Z,101108.72
2023-03-27T04:59:31.909Z,101104.28
2023-03-27T05:00:16.981Z,101110.38
2023-03-27T05:00:58.808Z,101100.75
2023-03-27T05:01:41.613Z,101108.63
2023-03-27T05:02:17.183Z,101106.84
2023-03-27T05:02:47.707Z,101106.88
2023-03-27T05:03:23.933Z,101109.56
2023-03-27T05:03:56.914Z,101115.72
2023-03-27T05:04:38.935Z,101084.22
2023-03-27T05:05:13.949Z,101113.09
2023-03-27T05:05:35.941Z,101114.88
2023-03-27T05:06:00.211Z,101107.84
2023-03-27T05:06:23.458Z,101114.00
2023-03-27T05:06:45.824Z,101121.91
2023-03-27T05:07:12.128Z,101112.28
2023-03-27T05:07:34.218Z,101119.28
2023-03-27T05:07:58.365Z,101118.38
2023-03-27T05:08:21.441Z,101123.72
2023-03-27T05:08:43.387Z,101099.22
2023-03-27T05:09:14.249Z,101114.88
2023-03-27T05:09:37.226Z,101127.19
2023-03-27T05:09:59.881Z,101123.69
2023-03-27T05:10:23.887Z,101126.31
2023-03-27T05:10:47.040Z,101124.50
2023-03-27T05:11:10.711Z,101131.53
2023-03-27T05:11:36.650Z,101129.78
2023-03-27T05:11:59.550Z,101116.63
2023-03-27T05:12:21.938Z,101129.78
2023-03-27T05:12:50.349Z,101134.16
2023-03-27T05:13:13.144Z,101135.06
2023-03-27T05:13:35.256Z,101120.97
2023-03-27T05:13:58.917Z,101131.53
2023-03-27T05:14:23.703Z,101134.19
2023-03-27T05:14:48.347Z,101130.66